Surfer Rosa — 9HTS7 — position and weather

sailwx.info

Track history (hours):
 
Tides and Currents Weather Stations Pressure Air Temp Water Temp Dewpoint Dewpoint Depression Visibility Wind Speed Wind Dir Waves Ship Positions

Surfer Rosa

Last reported at 2017-Oct-15 17:25 UTC. Time now 2017-Oct-17 01:12 UTC.
Position N 36°08' W 005°25'.

Length 183 m; draft 10.2 m.

Type: Ship. MMSI: 215555000.

Date/timePositionNaut miles runAvg speedWind from/ knotsBaromVisibWave heightAir tempDewpointWater temp
2017-Oct-15 17:25N 36°08' W 005°25'2 4.7
2017-Oct-15 17:00N 36°07' W 005°24'2 3.1
2017-Oct-15 16:29N 36°05' W 005°23'2 3.4
2017-Oct-15 16:01N 36°04' W 005°22'4 6.0
2017-Oct-15 15:23N 36°03' W 005°17'5 9.9
2017-Oct-15 14:53N 36°04' W 005°11'17011.2
2017-Oct-14 23:37N 36°38' W 001°44'212.7
2017-Oct-14 23:28N 36°39' W 001°42'612.9
2017-Oct-14 23:00N 36°42' W 001°35'612.9
2017-Oct-14 22:30N 36°45' W 001°29'1513.0
2017-Oct-14 21:21N 36°53' W 001°12'413.1
2017-Oct-14 21:00N 36°55' W 001°08'713.1
2017-Oct-14 20:29N 36°59' W 001°00'613.2
2017-Oct-14 20:00N 37°02' W 000°53'713.1
2017-Oct-14 19:28N 37°05' W 000°46'613.0
2017-Oct-14 18:59N 37°09' W 000°39'613.1
2017-Oct-14 18:30N 37°12' W 000°32'612.9
2017-Oct-14 18:00N 37°15' W 000°25'612.7
2017-Oct-14 17:30N 37°18' W 000°18'612.5
2017-Oct-14 17:00N 37°21' W 000°11'612.4
2017-Oct-14 16:30N 37°24' W 000°05'612.4
2017-Oct-14 16:00N 37°28' E 000°02'612.3
2017-Oct-14 15:30N 37°31' E 000°09'612.3
2017-Oct-14 15:00N 37°34' E 000°15'612.3
2017-Oct-14 14:30N 37°37' E 000°22'510.7
2017-Oct-14 14:00N 37°40' E 000°28'510.3
2017-Oct-14 13:30N 37°42' E 000°34'510.4
2017-Oct-14 13:00N 37°45' E 000°39'510.5
2017-Oct-14 12:30N 37°47' E 000°45'610.6
2017-Oct-14 11:58N 37°50' E 000°51'510.8
2017-Oct-14 11:30N 37°53' E 000°57'610.9
2017-Oct-14 10:58N 37°56' E 001°03'511.0
2017-Oct-14 10:30N 37°58' E 001°09'611.2
2017-Oct-14 10:00N 38°01' E 001°15'1013.6
2017-Oct-14 09:16N 38°06' E 001°26'414.1
2017-Oct-14 08:58N 38°08' E 001°31'713.7
2017-Oct-14 08:28N 38°12' E 001°38'613.1
2017-Oct-14 08:00N 38°15' E 001°45'1413.2
2017-Oct-14 06:56N 38°22' E 002°00'613.1
2017-Oct-14 06:30N 38°24' E 002°07'713.1
2017-Oct-14 06:00N 38°28' E 002°14'612.7
2017-Oct-14 05:30N 38°31' E 002°21'612.4
2017-Oct-14 05:00N 38°34' E 002°28'712.2
2017-Oct-14 04:28N 38°37' E 002°35'612.2
2017-Oct-14 04:00N 38°40' E 002°41'1612.3
2017-Oct-14 02:41N 38°48' E 002°59'312.2
2017-Oct-14 02:27N 38°50' E 003°02'612.4
2017-Oct-14 02:00N 38°53' E 003°08'812.1
2017-Oct-14 01:21N 38°57' E 003°17'412.1
2017-Oct-14 00:59N 38°59' E 003°22'612.1
2017-Oct-14 00:30N 39°02' E 003°29'611.9
2017-Oct-14 00:00N 39°05' E 003°35'611.7
2017-Oct-13 23:30N 39°08' E 003°42'611.9
2017-Oct-13 23:00N 39°11' E 003°48'612.4
2017-Oct-13 22:30N 39°14' E 003°55'612.4
2017-Oct-13 22:00N 39°17' E 004°02'1212.6
2017-Oct-13 21:05N 39°23' E 004°15'212.8
2017-Oct-13 20:53N 39°24' E 004°18'513.0
2017-Oct-13 20:30N 39°26' E 004°24'612.7
2017-Oct-13 20:00N 39°30' E 004°31'612.8
2017-Oct-13 19:30N 39°33' E 004°38'712.5
2017-Oct-13 18:58N 39°37' E 004°45'16712.3
2017-Oct-13 05:23N 41°43' E 007°09'512.4
2017-Oct-13 05:00N 41°46' E 007°13'11412.4
2017-Oct-12 19:52N 43°06' E 009°02'411.8
2017-Oct-12 19:30N 43°09' E 009°07'612.5
2017-Oct-12 19:00N 43°13' E 009°13'612.1
2017-Oct-12 18:30N 43°15' E 009°21'612.6
2017-Oct-12 18:00N 43°16' E 009°30'712.4
2017-Oct-12 17:26N 43°17' E 009°39'510.6
2017-Oct-12 17:00N 43°18' E 009°45'510.5
2017-Oct-12 16:30N 43°18' E 009°53'610.4
2017-Oct-12 15:58N 43°21' E 009°60'610.7
2017-Oct-12 15:27N 43°25' E 010°05'510.7
2017-Oct-12 15:00N 43°28' E 010°09'510.2
2017-Oct-12 14:30N 43°32' E 010°15'3 5.1
2017-Oct-12 14:00N 43°33' E 010°18'1 0.1
2017-Oct-12 07:30N 43°34' E 010°18'0 0.0
2017-Oct-12 06:54N 43°34' E 010°18'0 0.0
2017-Oct-12 06:30N 43°34' E 010°18'0 0.0
2017-Oct-12 05:51N 43°34' E 010°18'0 0.0
2017-Oct-12 05:30N 43°34' E 010°18'0 0.0
2017-Oct-12 05:00N 43°34' E 010°18'0 0.0
2017-Oct-12 04:30N 43°34' E 010°18'0 0.0
2017-Oct-12 04:00N 43°34' E 010°18'0 0.0
2017-Oct-12 03:30N 43°34' E 010°18'0 0.0
2017-Oct-12 02:57N 43°34' E 010°18'0 0.0
2017-Oct-12 02:27N 43°34' E 010°18'0 0.0
2017-Oct-12 02:00N 43°34' E 010°18'0 0.0
2017-Oct-12 01:30N 43°34' E 010°18'0 0.0
2017-Oct-12 00:57N 43°34' E 010°18'0 0.0
2017-Oct-12 00:30N 43°34' E 010°18'0 0.0
2017-Oct-11 23:57N 43°34' E 010°18'0 0.0
2017-Oct-11 23:30N 43°34' E 010°18'0 0.0
2017-Oct-11 23:00N 43°34' E 010°18'0 0.0
2017-Oct-11 22:30N 43°34' E 010°18'0 0.0
2017-Oct-11 22:00N 43°34' E 010°18'0 0.0
2017-Oct-11 21:30N 43°34' E 010°18'0 0.0
2017-Oct-11 20:57N 43°34' E 010°18'0 0.0
2017-Oct-11 20:24N 43°34' E 010°18'0 0.0
2017-Oct-11 19:57N 43°34' E 010°18'0 0.0
2017-Oct-11 19:30N 43°34' E 010°18'0 0.0
2017-Oct-11 19:00N 43°34' E 010°18'0 0.0
2017-Oct-11 18:27N 43°34' E 010°18'0 0.0
2017-Oct-11 18:00N 43°34' E 010°18'0 0.0
2017-Oct-11 17:30N 43°34' E 010°18'0 0.0
2017-Oct-11 17:00N 43°34' E 010°18'0 0.0
2017-Oct-11 00:00N 43°34' E 010°18'0 0.0
2017-Oct-10 23:30N 43°34' E 010°18'0 0.0
2017-Oct-10 23:00N 43°34' E 010°18'0 0.0
2017-Oct-10 22:30N 43°34' E 010°18'0 0.0
2017-Oct-10 22:00N 43°34' E 010°18'0 0.0
2017-Oct-10 21:30N 43°34' E 010°18'0 0.0
2017-Oct-10 21:00N 43°34' E 010°18'0 0.0
2017-Oct-10 20:27N 43°34' E 010°18'0 0.0
2017-Oct-10 19:54N 43°34' E 010°18'0 0.0
2017-Oct-10 19:30N 43°34' E 010°18'0 0.0
2017-Oct-10 19:00N 43°34' E 010°18'0 0.0
2017-Oct-10 18:30N 43°34' E 010°18'0 0.0
2017-Oct-10 18:00N 43°34' E 010°18'0 0.0
2017-Oct-10 17:27N 43°34' E 010°18'0 0.0
2017-Oct-10 16:57N 43°34' E 010°18'0 0.0
2017-Oct-10 16:18N 43°34' E 010°18'0 0.0
2017-Oct-10 16:00N 43°34' E 010°18'0 0.0
2017-Oct-10 15:30N 43°34' E 010°18'0 0.0
2017-Oct-10 15:00N 43°34' E 010°18'0 0.0
2017-Oct-10 14:00N 43°34' E 010°18'0 0.0
2017-Oct-10 13:30N 43°34' E 010°18'0 0.0
2017-Oct-10 13:00N 43°34' E 010°18'0 0.0
2017-Oct-10 12:30N 43°34' E 010°18'0 0.0
2017-Oct-10 12:00N 43°34' E 010°18'0 0.0
2017-Oct-10 11:30N 43°34' E 010°18'0 0.0
2017-Oct-10 11:00N 43°34' E 010°18'0 0.0
2017-Oct-10 10:30N 43°34' E 010°18'0 0.0
2017-Oct-10 10:00N 43°34' E 010°18'0 0.0
2017-Oct-10 09:30N 43°34' E 010°18'0 0.0
2017-Oct-10 09:00N 43°34' E 010°18'0 0.0
2017-Oct-10 08:30N 43°34' E 010°18'0 0.0
2017-Oct-10 08:00N 43°34' E 010°18'0 0.0
2017-Oct-10 07:24N 43°34' E 010°18'0 0.0
2017-Oct-10 07:00N 43°34' E 010°18'0 0.0
2017-Oct-10 06:30N 43°34' E 010°18'0 0.0
2017-Oct-10 06:00N 43°34' E 010°18'0 0.0
2017-Oct-10 05:27N 43°34' E 010°18'0 0.0
2017-Oct-10 05:00N 43°34' E 010°18'0 0.0
2017-Oct-10 04:30N 43°34' E 010°18'0 0.0
2017-Oct-10 03:57N 43°34' E 010°18'0 0.0
2017-Oct-10 03:30N 43°34' E 010°18'0 0.0
2017-Oct-10 03:00N 43°34' E 010°18'0 0.0
2017-Oct-10 02:27N 43°34' E 010°18'0 0.0
2017-Oct-10 02:00N 43°34' E 010°18'0 0.0
2017-Oct-10 01:30N 43°34' E 010°18'0 0.0
2017-Oct-10 01:00N 43°34' E 010°18'0 0.0
2017-Oct-10 00:30N 43°34' E 010°18'0 0.0
2017-Oct-10 00:00N 43°34' E 010°18'0 0.0
2017-Oct-09 23:30N 43°34' E 010°18'0 0.0
2017-Oct-09 23:00N 43°34' E 010°18'0 0.0
2017-Oct-09 22:30N 43°34' E 010°18'0 0.0
2017-Oct-09 22:00N 43°34' E 010°18'0 0.0
2017-Oct-09 21:30N 43°34' E 010°18'0 0.0
2017-Oct-09 21:00N 43°34' E 010°18'0 0.0
2017-Oct-09 20:30N 43°34' E 010°18'0 0.0
2017-Oct-09 19:57N 43°34' E 010°18'0 0.0
2017-Oct-09 19:30N 43°34' E 010°18'0 0.0
2017-Oct-09 19:00N 43°34' E 010°18'0 0.0
2017-Oct-09 18:30N 43°34' E 010°18'0 0.0
2017-Oct-09 18:00N 43°34' E 010°18'0 0.0
2017-Oct-09 17:30N 43°34' E 010°18'0 0.0
2017-Oct-09 17:00N 43°34' E 010°18'0 0.0
2017-Oct-09 16:30N 43°34' E 010°18'0 0.0
2017-Oct-09 16:00N 43°34' E 010°18'0 0.0
2017-Oct-09 15:30N 43°34' E 010°18'0 0.0
2017-Oct-09 14:57N 43°34' E 010°18'0 0.0
2017-Oct-09 14:27N 43°34' E 010°18'0 0.0
2017-Oct-09 14:00N 43°34' E 010°18'0 0.0
2017-Oct-09 13:30N 43°34' E 010°18'0 0.9
2017-Oct-09 13:01N 43°33' E 010°18'3 5.4
2017-Oct-09 12:30N 43°31' E 010°15'0 0.3
2017-Oct-09 12:01N 43°31' E 010°15'2 5.0
2017-Oct-09 11:30N 43°29' E 010°14'2 4.6
2017-Oct-09 10:59N 43°29' E 010°17'0 0.0
2017-Oct-09 10:29N 43°29' E 010°17'0 0.1
2017-Oct-09 09:59N 43°29' E 010°17'0 0.1
2017-Oct-09 09:29N 43°29' E 010°17'0 0.0
2017-Oct-09 08:56N 43°29' E 010°17'0 0.0
2017-Oct-09 08:29N 43°29' E 010°17'0 0.0
2017-Oct-09 07:53N 43°29' E 010°17'0 0.1
2017-Oct-09 07:23N 43°29' E 010°17'0 0.0
2017-Oct-09 06:53N 43°29' E 010°17'0 0.0
2017-Oct-09 06:26N 43°29' E 010°17'0 0.0
2017-Oct-09 05:56N 43°29' E 010°17'0 0.0
2017-Oct-09 05:29N 43°29' E 010°17'0 0.1
2017-Oct-09 04:59N 43°29' E 010°17'0 0.0
2017-Oct-09 04:29N 43°29' E 010°17'0 0.0
2017-Oct-09 03:56N 43°29' E 010°17'0 0.1
2017-Oct-09 03:26N 43°29' E 010°17'0 0.0
2017-Oct-09 02:59N 43°29' E 010°17'0 0.0
2017-Oct-09 02:29N 43°29' E 010°17'0 0.0
2017-Oct-09 01:38N 43°29' E 010°17'0 0.0
2017-Oct-09 01:29N 43°29' E 010°17'0 0.0
2017-Oct-09 00:50N 43°29' E 010°17'0 0.1
2017-Oct-09 00:29N 43°29' E 010°17'0 0.0
2017-Oct-08 23:59N 43°29' E 010°17'0 0.0
2017-Oct-08 23:26N 43°29' E 010°17'0 0.1
2017-Oct-08 22:59N 43°29' E 010°17'0 0.0
2017-Oct-08 22:29N 43°29' E 010°17'0 0.0
2017-Oct-08 21:59N 43°29' E 010°17'0 0.0
2017-Oct-08 21:29N 43°29' E 010°17'0 0.1
2017-Oct-08 20:59N 43°29' E 010°17'0 0.3
2017-Oct-08 20:29N 43°29' E 010°17'0 0.2
2017-Oct-08 19:59N 43°29' E 010°17'2 3.8
2017-Oct-08 19:30N 43°28' E 010°14'610.6
2017-Oct-08 18:55N 43°26' E 010°07'511.0
2017-Oct-08 18:30N 43°23' E 010°02'5 7.9
2017-Oct-08 17:56N 43°19' E 009°58'512.9
2017-Oct-08 17:30N 43°16' E 009°52'713.3
2017-Oct-08 17:00N 43°11' E 009°45'713.2
2017-Oct-08 16:30N 43°07' E 009°39'1110.7
2017-Oct-08 15:31N 42°56' E 009°42'1611.0
2017-Oct-08 14:01N 42°40' E 009°48'012.2
2017-Oct-08 14:00N 42°40' E 009°48'711.5
2017-Oct-08 13:23N 42°33' E 009°51'405 8.6
2017-Oct-06 14:02N 36°29' E 013°41'011.9
2017-Oct-06 14:01N 36°29' E 013°41'611.8
2017-Oct-06 13:30N 36°26' E 013°47'611.9
2017-Oct-06 13:00N 36°23' E 013°54'611.8
2017-Oct-06 12:30N 36°21' E 014°00'611.7
2017-Oct-06 12:00N 36°18' E 014°07'611.7
2017-Oct-06 11:30N 36°15' E 014°13'611.7
2017-Oct-06 11:01N 36°13' E 014°20'611.3
2017-Oct-06 10:31N 36°09' E 014°25'612.0
2017-Oct-06 10:00N 36°04' E 014°29'612.1
2017-Oct-06 09:30N 35°59' E 014°34'3 6.4
2017-Oct-06 09:00N 35°57' E 014°36'1 1.1
2017-Oct-06 08:30N 35°57' E 014°36'0 1.0
2017-Oct-06 08:00N 35°58' E 014°36'2 4.6
2017-Oct-06 07:31N 35°60' E 014°37'3 5.5
2017-Oct-06 07:01N 36°02' E 014°39'1 2.2
2017-Oct-06 06:29N 36°03' E 014°40'0 0.6
2017-Oct-06 06:00N 36°03' E 014°40'0 0.8
2017-Oct-06 05:30N 36°03' E 014°41'0 0.8
2017-Oct-06 05:00N 36°04' E 014°41'0 0.9
2017-Oct-06 04:30N 36°04' E 014°41'1 0.9
2017-Oct-06 03:59N 36°04' E 014°42'0 1.0
2017-Oct-06 03:30N 36°04' E 014°42'1 1.0
2017-Oct-06 02:46N 36°05' E 014°43'0 1.0
2017-Oct-06 02:30N 36°05' E 014°43'1 1.0
2017-Oct-06 02:00N 36°05' E 014°44'1 1.0
2017-Oct-06 00:49N 36°06' E 014°45'1 0.6
2017-Oct-05 23:42N 36°06' E 014°46'0 1.1
2017-Oct-05 23:29N 36°06' E 014°46'1 1.5
2017-Oct-05 23:00N 36°07' E 014°45'2 3.9
2017-Oct-05 22:30N 36°07' E 014°43'2 4.4
2017-Oct-05 22:00N 36°06' E 014°40'2 3.9
2017-Oct-05 21:30N 36°06' E 014°38'1 2.2
2017-Oct-05 21:00N 36°07' E 014°37'0 0.6
2017-Oct-05 20:30N 36°07' E 014°37'0 0.6
2017-Oct-05 20:00N 36°07' E 014°37'0 0.6
2017-Oct-05 19:30N 36°07' E 014°37'0 0.5
2017-Oct-05 19:00N 36°08' E 014°38'0 0.5
2017-Oct-05 18:30N 36°08' E 014°38'0 0.5
2017-Oct-05 18:00N 36°08' E 014°38'0 0.5
2017-Oct-05 17:30N 36°08' E 014°38'  
Track history (hours):
 
Tides and Currents Weather Stations Pressure Air Temp Water Temp Dewpoint Dewpoint Depression Visibility Wind Speed Wind Dir Waves Ship Positions

Surfer Rosa

Last reported at 2017-Oct-15 17:25 UTC. Time now 2017-Oct-17 01:12 UTC.
Position N 36°08' W 005°25'.

Length 183 m; draft 10.2 m.

Type: Ship. MMSI: 215555000.

Date/timePositionNaut miles runAvg speedWind from/ knotsBaromVisibWave heightAir tempDewpointWater temp
2017-Oct-15 17:25N 36°08' W 005°25'2 4.7
2017-Oct-15 17:00N 36°07' W 005°24'2 3.1
2017-Oct-15 16:29N 36°05' W 005°23'2 3.4
2017-Oct-15 16:01N 36°04' W 005°22'4 6.0
2017-Oct-15 15:23N 36°03' W 005°17'5 9.9
2017-Oct-15 14:53N 36°04' W 005°11'17011.2
2017-Oct-14 23:37N 36°38' W 001°44'212.7
2017-Oct-14 23:28N 36°39' W 001°42'612.9
2017-Oct-14 23:00N 36°42' W 001°35'612.9
2017-Oct-14 22:30N 36°45' W 001°29'1513.0
2017-Oct-14 21:21N 36°53' W 001°12'413.1
2017-Oct-14 21:00N 36°55' W 001°08'713.1
2017-Oct-14 20:29N 36°59' W 001°00'613.2
2017-Oct-14 20:00N 37°02' W 000°53'713.1
2017-Oct-14 19:28N 37°05' W 000°46'613.0
2017-Oct-14 18:59N 37°09' W 000°39'613.1
2017-Oct-14 18:30N 37°12' W 000°32'612.9
2017-Oct-14 18:00N 37°15' W 000°25'612.7
2017-Oct-14 17:30N 37°18' W 000°18'612.5
2017-Oct-14 17:00N 37°21' W 000°11'612.4
2017-Oct-14 16:30N 37°24' W 000°05'612.4
2017-Oct-14 16:00N 37°28' E 000°02'612.3
2017-Oct-14 15:30N 37°31' E 000°09'612.3
2017-Oct-14 15:00N 37°34' E 000°15'612.3
2017-Oct-14 14:30N 37°37' E 000°22'510.7
2017-Oct-14 14:00N 37°40' E 000°28'510.3
2017-Oct-14 13:30N 37°42' E 000°34'510.4
2017-Oct-14 13:00N 37°45' E 000°39'510.5
2017-Oct-14 12:30N 37°47' E 000°45'610.6
2017-Oct-14 11:58N 37°50' E 000°51'510.8
2017-Oct-14 11:30N 37°53' E 000°57'610.9
2017-Oct-14 10:58N 37°56' E 001°03'511.0
2017-Oct-14 10:30N 37°58' E 001°09'611.2
2017-Oct-14 10:00N 38°01' E 001°15'1013.6
2017-Oct-14 09:16N 38°06' E 001°26'414.1
2017-Oct-14 08:58N 38°08' E 001°31'713.7
2017-Oct-14 08:28N 38°12' E 001°38'613.1
2017-Oct-14 08:00N 38°15' E 001°45'1413.2
2017-Oct-14 06:56N 38°22' E 002°00'613.1
2017-Oct-14 06:30N 38°24' E 002°07'713.1
2017-Oct-14 06:00N 38°28' E 002°14'612.7
2017-Oct-14 05:30N 38°31' E 002°21'612.4
2017-Oct-14 05:00N 38°34' E 002°28'712.2
2017-Oct-14 04:28N 38°37' E 002°35'612.2
2017-Oct-14 04:00N 38°40' E 002°41'1612.3
2017-Oct-14 02:41N 38°48' E 002°59'312.2
2017-Oct-14 02:27N 38°50' E 003°02'612.4
2017-Oct-14 02:00N 38°53' E 003°08'812.1
2017-Oct-14 01:21N 38°57' E 003°17'412.1
2017-Oct-14 00:59N 38°59' E 003°22'612.1
2017-Oct-14 00:30N 39°02' E 003°29'611.9
2017-Oct-14 00:00N 39°05' E 003°35'611.7
2017-Oct-13 23:30N 39°08' E 003°42'611.9
2017-Oct-13 23:00N 39°11' E 003°48'612.4
2017-Oct-13 22:30N 39°14' E 003°55'612.4
2017-Oct-13 22:00N 39°17' E 004°02'1212.6
2017-Oct-13 21:05N 39°23' E 004°15'212.8
2017-Oct-13 20:53N 39°24' E 004°18'513.0
2017-Oct-13 20:30N 39°26' E 004°24'612.7
2017-Oct-13 20:00N 39°30' E 004°31'612.8
2017-Oct-13 19:30N 39°33' E 004°38'712.5
2017-Oct-13 18:58N 39°37' E 004°45'16712.3
2017-Oct-13 05:23N 41°43' E 007°09'512.4
2017-Oct-13 05:00N 41°46' E 007°13'11412.4
2017-Oct-12 19:52N 43°06' E 009°02'411.8
2017-Oct-12 19:30N 43°09' E 009°07'612.5
2017-Oct-12 19:00N 43°13' E 009°13'612.1
2017-Oct-12 18:30N 43°15' E 009°21'612.6
2017-Oct-12 18:00N 43°16' E 009°30'712.4
2017-Oct-12 17:26N 43°17' E 009°39'510.6
2017-Oct-12 17:00N 43°18' E 009°45'510.5
2017-Oct-12 16:30N 43°18' E 009°53'610.4
2017-Oct-12 15:58N 43°21' E 009°60'610.7
2017-Oct-12 15:27N 43°25' E 010°05'510.7
2017-Oct-12 15:00N 43°28' E 010°09'510.2
2017-Oct-12 14:30N 43°32' E 010°15'3 5.1
2017-Oct-12 14:00N 43°33' E 010°18'1 0.1
2017-Oct-12 07:30N 43°34' E 010°18'0 0.0
2017-Oct-12 06:54N 43°34' E 010°18'0 0.0
2017-Oct-12 06:30N 43°34' E 010°18'0 0.0
2017-Oct-12 05:51N 43°34' E 010°18'0 0.0
2017-Oct-12 05:30N 43°34' E 010°18'0 0.0
2017-Oct-12 05:00N 43°34' E 010°18'0 0.0
2017-Oct-12 04:30N 43°34' E 010°18'0 0.0
2017-Oct-12 04:00N 43°34' E 010°18'0 0.0
2017-Oct-12 03:30N 43°34' E 010°18'0 0.0
2017-Oct-12 02:57N 43°34' E 010°18'0 0.0
2017-Oct-12 02:27N 43°34' E 010°18'0 0.0
2017-Oct-12 02:00N 43°34' E 010°18'0 0.0
2017-Oct-12 01:30N 43°34' E 010°18'0 0.0
2017-Oct-12 00:57N 43°34' E 010°18'0 0.0
2017-Oct-12 00:30N 43°34' E 010°18'0 0.0
2017-Oct-11 23:57N 43°34' E 010°18'0 0.0
2017-Oct-11 23:30N 43°34' E 010°18'0 0.0
2017-Oct-11 23:00N 43°34' E 010°18'0 0.0
2017-Oct-11 22:30N 43°34' E 010°18'0 0.0
2017-Oct-11 22:00N 43°34' E 010°18'0 0.0
2017-Oct-11 21:30N 43°34' E 010°18'0 0.0
2017-Oct-11 20:57N 43°34' E 010°18'0 0.0
2017-Oct-11 20:24N 43°34' E 010°18'0 0.0
2017-Oct-11 19:57N 43°34' E 010°18'0 0.0
2017-Oct-11 19:30N 43°34' E 010°18'0 0.0
2017-Oct-11 19:00N 43°34' E 010°18'0 0.0
2017-Oct-11 18:27N 43°34' E 010°18'0 0.0
2017-Oct-11 18:00N 43°34' E 010°18'0 0.0
2017-Oct-11 17:30N 43°34' E 010°18'0 0.0
2017-Oct-11 17:00N 43°34' E 010°18'0 0.0
2017-Oct-11 00:00N 43°34' E 010°18'0 0.0
2017-Oct-10 23:30N 43°34' E 010°18'0 0.0
2017-Oct-10 23:00N 43°34' E 010°18'0 0.0
2017-Oct-10 22:30N 43°34' E 010°18'0 0.0
2017-Oct-10 22:00N 43°34' E 010°18'0 0.0
2017-Oct-10 21:30N 43°34' E 010°18'0 0.0
2017-Oct-10 21:00N 43°34' E 010°18'0 0.0
2017-Oct-10 20:27N 43°34' E 010°18'0 0.0
2017-Oct-10 19:54N 43°34' E 010°18'0 0.0
2017-Oct-10 19:30N 43°34' E 010°18'0 0.0
2017-Oct-10 19:00N 43°34' E 010°18'0 0.0
2017-Oct-10 18:30N 43°34' E 010°18'0 0.0
2017-Oct-10 18:00N 43°34' E 010°18'0 0.0
2017-Oct-10 17:27N 43°34' E 010°18'0 0.0
2017-Oct-10 16:57N 43°34' E 010°18'0 0.0
2017-Oct-10 16:18N 43°34' E 010°18'0 0.0
2017-Oct-10 16:00N 43°34' E 010°18'0 0.0
2017-Oct-10 15:30N 43°34' E 010°18'0 0.0
2017-Oct-10 15:00N 43°34' E 010°18'0 0.0
2017-Oct-10 14:00N 43°34' E 010°18'0 0.0
2017-Oct-10 13:30N 43°34' E 010°18'0 0.0
2017-Oct-10 13:00N 43°34' E 010°18'0 0.0
2017-Oct-10 12:30N 43°34' E 010°18'0 0.0
2017-Oct-10 12:00N 43°34' E 010°18'0 0.0
2017-Oct-10 11:30N 43°34' E 010°18'0 0.0
2017-Oct-10 11:00N 43°34' E 010°18'0 0.0
2017-Oct-10 10:30N 43°34' E 010°18'0 0.0
2017-Oct-10 10:00N 43°34' E 010°18'0 0.0
2017-Oct-10 09:30N 43°34' E 010°18'0 0.0
2017-Oct-10 09:00N 43°34' E 010°18'0 0.0
2017-Oct-10 08:30N 43°34' E 010°18'0 0.0
2017-Oct-10 08:00N 43°34' E 010°18'0 0.0
2017-Oct-10 07:24N 43°34' E 010°18'0 0.0
2017-Oct-10 07:00N 43°34' E 010°18'0 0.0
2017-Oct-10 06:30N 43°34' E 010°18'0 0.0
2017-Oct-10 06:00N 43°34' E 010°18'0 0.0
2017-Oct-10 05:27N 43°34' E 010°18'0 0.0
2017-Oct-10 05:00N 43°34' E 010°18'0 0.0
2017-Oct-10 04:30N 43°34' E 010°18'0 0.0
2017-Oct-10 03:57N 43°34' E 010°18'0 0.0
2017-Oct-10 03:30N 43°34' E 010°18'0 0.0
2017-Oct-10 03:00N 43°34' E 010°18'0 0.0
2017-Oct-10 02:27N 43°34' E 010°18'0 0.0
2017-Oct-10 02:00N 43°34' E 010°18'0 0.0
2017-Oct-10 01:30N 43°34' E 010°18'0 0.0
2017-Oct-10 01:00N 43°34' E 010°18'0 0.0
2017-Oct-10 00:30N 43°34' E 010°18'0 0.0
2017-Oct-10 00:00N 43°34' E 010°18'0 0.0
2017-Oct-09 23:30N 43°34' E 010°18'0 0.0
2017-Oct-09 23:00N 43°34' E 010°18'0 0.0
2017-Oct-09 22:30N 43°34' E 010°18'0 0.0
2017-Oct-09 22:00N 43°34' E 010°18'0 0.0
2017-Oct-09 21:30N 43°34' E 010°18'0 0.0
2017-Oct-09 21:00N 43°34' E 010°18'0 0.0
2017-Oct-09 20:30N 43°34' E 010°18'0 0.0
2017-Oct-09 19:57N 43°34' E 010°18'0 0.0
2017-Oct-09 19:30N 43°34' E 010°18'0 0.0
2017-Oct-09 19:00N 43°34' E 010°18'0 0.0
2017-Oct-09 18:30N 43°34' E 010°18'0 0.0
2017-Oct-09 18:00N 43°34' E 010°18'0 0.0
2017-Oct-09 17:30N 43°34' E 010°18'0 0.0
2017-Oct-09 17:00N 43°34' E 010°18'0 0.0
2017-Oct-09 16:30N 43°34' E 010°18'0 0.0
2017-Oct-09 16:00N 43°34' E 010°18'0 0.0
2017-Oct-09 15:30N 43°34' E 010°18'0 0.0
2017-Oct-09 14:57N 43°34' E 010°18'0 0.0
2017-Oct-09 14:27N 43°34' E 010°18'0 0.0
2017-Oct-09 14:00N 43°34' E 010°18'0 0.0
2017-Oct-09 13:30N 43°34' E 010°18'0 0.9
2017-Oct-09 13:01N 43°33' E 010°18'3 5.4
2017-Oct-09 12:30N 43°31' E 010°15'0 0.3
2017-Oct-09 12:01N 43°31' E 010°15'2 5.0
2017-Oct-09 11:30N 43°29' E 010°14'2 4.6
2017-Oct-09 10:59N 43°29' E 010°17'0 0.0
2017-Oct-09 10:29N 43°29' E 010°17'0 0.1
2017-Oct-09 09:59N 43°29' E 010°17'0 0.1
2017-Oct-09 09:29N 43°29' E 010°17'0 0.0
2017-Oct-09 08:56N 43°29' E 010°17'0 0.0
2017-Oct-09 08:29N 43°29' E 010°17'0 0.0
2017-Oct-09 07:53N 43°29' E 010°17'0 0.1
2017-Oct-09 07:23N 43°29' E 010°17'0 0.0
2017-Oct-09 06:53N 43°29' E 010°17'0 0.0
2017-Oct-09 06:26N 43°29' E 010°17'0 0.0
2017-Oct-09 05:56N 43°29' E 010°17'0 0.0
2017-Oct-09 05:29N 43°29' E 010°17'0 0.1
2017-Oct-09 04:59N 43°29' E 010°17'0 0.0
2017-Oct-09 04:29N 43°29' E 010°17'0 0.0
2017-Oct-09 03:56N 43°29' E 010°17'0 0.1
2017-Oct-09 03:26N 43°29' E 010°17'0 0.0
2017-Oct-09 02:59N 43°29' E 010°17'0 0.0
2017-Oct-09 02:29N 43°29' E 010°17'0 0.0
2017-Oct-09 01:38N 43°29' E 010°17'0 0.0
2017-Oct-09 01:29N 43°29' E 010°17'0 0.0
2017-Oct-09 00:50N 43°29' E 010°17'0 0.1
2017-Oct-09 00:29N 43°29' E 010°17'0 0.0
2017-Oct-08 23:59N 43°29' E 010°17'0 0.0
2017-Oct-08 23:26N 43°29' E 010°17'0 0.1
2017-Oct-08 22:59N 43°29' E 010°17'0 0.0
2017-Oct-08 22:29N 43°29' E 010°17'0 0.0
2017-Oct-08 21:59N 43°29' E 010°17'0 0.0
2017-Oct-08 21:29N 43°29' E 010°17'0 0.1
2017-Oct-08 20:59N 43°29' E 010°17'0 0.3
2017-Oct-08 20:29N 43°29' E 010°17'0 0.2
2017-Oct-08 19:59N 43°29' E 010°17'2 3.8
2017-Oct-08 19:30N 43°28' E 010°14'610.6
2017-Oct-08 18:55N 43°26' E 010°07'511.0
2017-Oct-08 18:30N 43°23' E 010°02'5 7.9
2017-Oct-08 17:56N 43°19' E 009°58'512.9
2017-Oct-08 17:30N 43°16' E 009°52'713.3
2017-Oct-08 17:00N 43°11' E 009°45'713.2
2017-Oct-08 16:30N 43°07' E 009°39'1110.7
2017-Oct-08 15:31N 42°56' E 009°42'1611.0
2017-Oct-08 14:01N 42°40' E 009°48'012.2
2017-Oct-08 14:00N 42°40' E 009°48'711.5
2017-Oct-08 13:23N 42°33' E 009°51'405 8.6
2017-Oct-06 14:02N 36°29' E 013°41'011.9
2017-Oct-06 14:01N 36°29' E 013°41'611.8
2017-Oct-06 13:30N 36°26' E 013°47'611.9
2017-Oct-06 13:00N 36°23' E 013°54'611.8
2017-Oct-06 12:30N 36°21' E 014°00'611.7
2017-Oct-06 12:00N 36°18' E 014°07'611.7
2017-Oct-06 11:30N 36°15' E 014°13'611.7
2017-Oct-06 11:01N 36°13' E 014°20'611.3
2017-Oct-06 10:31N 36°09' E 014°25'612.0
2017-Oct-06 10:00N 36°04' E 014°29'612.1
2017-Oct-06 09:30N 35°59' E 014°34'3 6.4
2017-Oct-06 09:00N 35°57' E 014°36'1 1.1
2017-Oct-06 08:30N 35°57' E 014°36'0 1.0
2017-Oct-06 08:00N 35°58' E 014°36'2 4.6
2017-Oct-06 07:31N 35°60' E 014°37'3 5.5
2017-Oct-06 07:01N 36°02' E 014°39'1 2.2
2017-Oct-06 06:29N 36°03' E 014°40'0 0.6
2017-Oct-06 06:00N 36°03' E 014°40'0 0.8
2017-Oct-06 05:30N 36°03' E 014°41'0 0.8
2017-Oct-06 05:00N 36°04' E 014°41'0 0.9
2017-Oct-06 04:30N 36°04' E 014°41'1 0.9
2017-Oct-06 03:59N 36°04' E 014°42'0 1.0
2017-Oct-06 03:30N 36°04' E 014°42'1 1.0
2017-Oct-06 02:46N 36°05' E 014°43'0 1.0
2017-Oct-06 02:30N 36°05' E 014°43'1 1.0
2017-Oct-06 02:00N 36°05' E 014°44'1 1.0
2017-Oct-06 00:49N 36°06' E 014°45'1 0.6
2017-Oct-05 23:42N 36°06' E 014°46'0 1.1
2017-Oct-05 23:29N 36°06' E 014°46'1 1.5
2017-Oct-05 23:00N 36°07' E 014°45'2 3.9
2017-Oct-05 22:30N 36°07' E 014°43'2 4.4
2017-Oct-05 22:00N 36°06' E 014°40'2 3.9
2017-Oct-05 21:30N 36°06' E 014°38'1 2.2
2017-Oct-05 21:00N 36°07' E 014°37'0 0.6
2017-Oct-05 20:30N 36°07' E 014°37'0 0.6
2017-Oct-05 20:00N 36°07' E 014°37'0 0.6
2017-Oct-05 19:30N 36°07' E 014°37'0 0.5
2017-Oct-05 19:00N 36°08' E 014°38'0 0.5
2017-Oct-05 18:30N 36°08' E 014°38'0 0.5
2017-Oct-05 18:00N 36°08' E 014°38'0 0.5
2017-Oct-05 17:30N 36°08' E 014°38'  

Dump ship's entire track history